Germantown, Illinois
Current Conditions -  °F | °C
As of 4:58 PM on Friday 28 Nov 2014 (Local Time) from KBLV Reporting Station
Clear Clear  
Wind Chill: 36°   Ceiling: Unl
Heat Index: 43°   Visibility: 10mi
Dew Point: 34°   Wind: 15mph
Humidity: 71%   Direction: 170°S
Pressure: 29.96"   Gusts: NA
Location:  38.55°N, 89.54°W
Report Text: KBLV 282258Z AUTO 17013KT 10SM CLR 06/01 A2996 RMK AO2 SLP153 T00620012
Loading
Personal Weather Stations






























Interactive Weather Map New forecast layout! Learn more

10-Day Weather Forecast

Advertisements
Track Severe Weather on mobile